Time;durP1;ratioP1;P1;durP2;ratioP2;P2;SDS_P1;SDS_P2;PMS_P1;PMS_P2;Temp;Humidity;BMP_temperature;BMP_pressure;BME280_temperature;BME280_humidity;BME280_pressure;Samples;Min_cycle;Max_cycle;Signal;HPM_P1;HPM_P2
2022/10/16 00:01:06;;;;;;;1.80;1.23;;;17.40;65.90;;;;;;5071573;28;20051;-76
2022/10/16 00:03:33;;;;;;;1.63;1.30;;;17.50;66.00;;;;;;5070507;28;20128;-76
2022/10/16 00:06:00;;;;;;;1.50;1.30;;;17.40;65.90;;;;;;5071892;28;20055;-76
2022/10/16 00:08:26;;;;;;;1.60;1.30;;;17.40;65.90;;;;;;5071598;28;20084;-76
2022/10/16 00:10:59;;;;;;;2.13;1.30;;;17.40;65.90;;;;;;5070472;28;20049;-76
2022/10/16 00:13:26;;;;;;;1.60;1.20;;;17.40;65.90;;;;;;5070015;28;20550;-75
2022/10/16 00:15:55;;;;;;;2.15;1.35;;;17.40;66.00;;;;;;5071301;28;20523;-76
2022/10/16 00:18:22;;;;;;;1.40;1.20;;;17.40;65.90;;;;;;5070583;28;20131;-76
2022/10/16 00:20:49;;;;;;;1.30;1.10;;;17.40;65.90;;;;;;5071281;28;20059;-76
2022/10/16 00:23:15;;;;;;;2.05;1.30;;;17.40;65.90;;;;;;5075257;28;20051;-76
2022/10/16 00:25:42;;;;;;;1.30;1.10;;;17.40;65.90;;;;;;5075027;28;20072;-76
2022/10/16 00:28:10;;;;;;;1.25;1.05;;;17.40;66.00;;;;;;5075369;28;20139;-76
2022/10/16 00:30:38;;;;;;;1.33;1.10;;;17.40;66.00;;;;;;5075246;28;20544;-76
2022/10/16 00:33:05;;;;;;;1.55;1.17;;;17.30;65.90;;;;;;5075149;28;20049;-76
2022/10/16 00:35:32;;;;;;;1.30;1.10;;;17.30;65.90;;;;;;5074881;28;20049;-75
2022/10/16 00:37:58;;;;;;;2.22;1.35;;;17.30;66.00;;;;;;5075032;28;20048;-76
2022/10/16 00:40:25;;;;;;;1.17;1.00;;;17.30;66.00;;;;;;5074610;28;20523;-75
2022/10/16 00:42:52;;;;;;;1.17;1.02;;;17.30;66.00;;;;;;5074716;28;20079;-75
2022/10/16 00:45:20;;;;;;;2.10;1.30;;;17.30;66.00;;;;;;5074805;28;20159;-76
2022/10/16 00:47:49;;;;;;;1.35;1.20;;;17.30;66.00;;;;;;5074846;28;20139;-76
2022/10/16 00:50:19;;;;;;;1.40;1.20;;;17.30;66.00;;;;;;5074113;28;20063;-76
2022/10/16 00:52:47;;;;;;;2.05;1.30;;;17.30;66.00;;;;;;5074350;28;20052;-76
2022/10/16 00:55:14;;;;;;;1.70;1.27;;;17.40;66.10;;;;;;5074442;28;20135;-75
2022/10/16 00:57:41;;;;;;;1.52;1.25;;;17.30;66.00;;;;;;5074386;28;20060;-76
2022/10/16 01:00:10;;;;;;;1.13;1.02;;;17.30;66.00;;;;;;5073891;28;20056;-76
2022/10/16 01:02:38;;;;;;;1.92;1.27;;;17.30;66.00;;;;;;5074241;28;20053;-76
2022/10/16 01:05:05;;;;;;;1.30;1.20;;;17.30;66.00;;;;;;5074108;28;20508;-76
2022/10/16 01:07:37;;;;;;;2.47;1.20;;;17.30;66.00;;;;;;5074210;28;20127;-77
2022/10/16 01:10:08;;;;;;;1.67;1.30;;;17.30;66.00;;;;;;5074019;28;20056;-76
2022/10/16 01:12:40;;;;;;;1.40;1.15;;;17.30;66.10;;;;;;5073439;28;20517;-76
2022/10/16 01:15:11;;;;;;;1.65;1.17;;;17.30;66.10;;;;;;5074019;28;20063;-76
2022/10/16 01:17:42;;;;;;;2.78;1.33;;;17.30;66.10;;;;;;5074312;28;20053;-76
2022/10/16 01:20:12;;;;;;;1.42;1.00;;;17.30;66.10;;;;;;5074214;28;20112;-75
2022/10/16 01:22:44;;;;;;;1.40;1.20;;;17.30;66.10;;;;;;5073973;28;20135;-76
2022/10/16 01:25:15;;;;;;;1.52;1.20;;;17.30;66.10;;;;;;5073551;28;20140;-76
2022/10/16 01:27:43;;;;;;;1.30;1.20;;;17.20;66.00;;;;;;5061364;28;20058;-76
2022/10/16 01:30:13;;;;;;;1.42;1.10;;;17.30;66.10;;;;;;5073557;28;20052;-76
2022/10/16 01:32:41;;;;;;;1.45;1.00;;;17.20;66.10;;;;;;5073465;28;20048;-76
2022/10/16 01:35:11;;;;;;;1.95;1.17;;;17.20;66.00;;;;;;5073599;28;20504;-76
2022/10/16 01:37:39;;;;;;;1.35;1.00;;;17.20;66.10;;;;;;5073709;28;20062;-76
2022/10/16 01:40:08;;;;;;;2.25;1.33;;;17.20;66.00;;;;;;5073529;28;20052;-76
2022/10/16 01:42:36;;;;;;;1.45;1.20;;;17.20;66.00;;;;;;5073552;28;20127;-76
2022/10/16 01:45:06;;;;;;;1.25;1.00;;;17.20;66.00;;;;;;5073083;28;20064;-76
2022/10/16 01:47:33;;;;;;;1.10;0.95;;;17.20;66.00;;;;;;5073682;28;20056;-76
2022/10/16 01:49:59;;;;;;;1.23;1.13;;;17.20;66.00;;;;;;5073176;28;20127;-76
2022/10/16 01:52:26;;;;;;;1.33;1.05;;;17.20;66.00;;;;;;5073526;28;20055;-76
2022/10/16 01:54:54;;;;;;;1.10;1.00;;;17.20;66.00;;;;;;5073150;28;20058;-76
2022/10/16 01:57:21;;;;;;;1.30;1.10;;;17.20;66.00;;;;;;5073209;28;20060;-76
2022/10/16 01:59:49;;;;;;;1.35;1.13;;;17.20;66.00;;;;;;5073385;28;20084;-75
2022/10/16 02:02:18;;;;;;;1.42;1.20;;;17.20;66.10;;;;;;5072881;28;20055;-76
2022/10/16 02:04:47;;;;;;;1.60;1.13;;;17.20;66.00;;;;;;5074315;28;20049;-77
2022/10/16 02:07:14;;;;;;;1.92;1.20;;;17.20;66.00;;;;;;5073085;28;20131;-76
2022/10/16 02:09:40;;;;;;;1.20;1.10;;;17.20;66.00;;;;;;5072955;28;20135;-76
2022/10/16 02:12:09;;;;;;;1.65;1.10;;;17.20;66.00;;;;;;5074079;28;20048;-76
2022/10/16 02:14:37;;;;;;;1.50;1.20;;;17.20;66.00;;;;;;5072872;28;20056;-76
2022/10/16 02:17:11;;;;;;;1.35;1.20;;;17.20;66.00;;;;;;5073207;28;20580;-75
2022/10/16 02:19:39;;;;;;;1.20;1.10;;;17.20;65.90;;;;;;5072476;28;20052;-76
2022/10/16 02:22:08;;;;;;;1.55;1.13;;;17.20;66.00;;;;;;5072722;28;20062;-76
2022/10/16 02:24:36;;;;;;;1.35;1.13;;;17.20;65.90;;;;;;5073776;28;20128;-76
2022/10/16 02:27:07;;;;;;;2.40;1.65;;;17.20;66.00;;;;;;5072671;28;20512;-76
2022/10/16 02:29:35;;;;;;;1.48;1.10;;;17.20;66.00;;;;;;5073860;28;20048;-75
2022/10/16 02:32:02;;;;;;;1.48;1.10;;;17.20;66.00;;;;;;5073670;28;20135;-76
2022/10/16 02:34:29;;;;;;;1.20;1.10;;;17.20;66.00;;;;;;5072277;28;20409;-76
2022/10/16 02:36:57;;;;;;;1.70;1.13;;;17.20;65.90;;;;;;5073682;28;20416;-76
2022/10/16 02:39:24;;;;;;;1.55;1.40;;;17.20;66.00;;;;;;5072546;28;20045;-76
2022/10/16 02:41:50;;;;;;;2.25;1.20;;;17.20;66.00;;;;;;5072029;28;20056;-76
2022/10/16 02:44:17;;;;;;;1.42;1.00;;;17.20;65.90;;;;;;5073274;28;20151;-75
2022/10/16 02:46:44;;;;;;;1.70;1.20;;;17.20;65.90;;;;;;5071736;28;20052;-76
2022/10/16 02:49:10;;;;;;;1.50;1.10;;;17.20;66.00;;;;;;5072026;28;20052;-76
2022/10/16 02:51:37;;;;;;;1.50;1.10;;;17.20;66.00;;;;;;5071754;28;20053;-77
2022/10/16 02:54:05;;;;;;;1.50;1.10;;;17.20;66.00;;;;;;5071530;28;20410;-76
2022/10/16 02:56:32;;;;;;;1.27;1.08;;;17.20;66.00;;;;;;5073253;28;20103;-76
2022/10/16 02:58:58;;;;;;;1.30;1.08;;;17.20;66.00;;;;;;5072088;28;20052;-76
2022/10/16 03:01:25;;;;;;;1.10;1.00;;;17.20;66.00;;;;;;5071520;28;20056;-77
2022/10/16 03:03:52;;;;;;;1.63;0.98;;;17.20;66.00;;;;;;5072304;28;20536;-76
2022/10/16 03:06:19;;;;;;;2.53;1.17;;;17.20;66.00;;;;;;5071870;28;20136;-77
2022/10/16 03:08:45;;;;;;;1.00;0.90;;;17.20;66.00;;;;;;5071657;28;20060;-76
2022/10/16 03:11:13;;;;;;;1.13;1.02;;;17.20;66.00;;;;;;5071605;28;20505;-76
2022/10/16 03:13:40;;;;;;;0.80;0.80;;;17.20;66.00;;;;;;5071621;28;20059;-76
2022/10/16 03:16:07;;;;;;;1.48;1.00;;;17.20;66.00;;;;;;5071672;28;20060;-76
2022/10/16 03:18:34;;;;;;;1.67;1.20;;;17.20;66.10;;;;;;5071772;28;20056;-76
2022/10/16 03:21:00;;;;;;;1.60;1.00;;;17.20;66.00;;;;;;5071342;28;20060;-76
2022/10/16 03:23:27;;;;;;;1.60;1.10;;;17.20;66.10;;;;;;5071431;28;20044;-76
2022/10/16 03:25:54;;;;;;;1.55;1.10;;;17.20;66.00;;;;;;5071530;28;20485;-75
2022/10/16 03:28:22;;;;;;;2.08;1.20;;;17.20;66.10;;;;;;5071495;28;20060;-76
2022/10/16 03:30:49;;;;;;;1.23;1.10;;;17.10;66.00;;;;;;5071134;28;20048;-76
2022/10/16 03:33:16;;;;;;;0.88;0.80;;;17.10;66.00;;;;;;5071268;28;20051;-76
2022/10/16 03:35:42;;;;;;;2.05;1.00;;;17.20;66.00;;;;;;5071359;28;20139;-75
2022/10/16 03:38:09;;;;;;;2.25;1.02;;;17.20;66.00;;;;;;5071097;28;20044;-76
2022/10/16 03:40:36;;;;;;;0.90;0.90;;;17.20;66.00;;;;;;5071988;28;20577;-77
2022/10/16 03:43:03;;;;;;;1.10;1.00;;;17.10;66.00;;;;;;5070964;28;20051;-76
2022/10/16 03:45:31;;;;;;;1.40;1.00;;;17.10;66.00;;;;;;5071325;28;20412;-76
2022/10/16 03:47:57;;;;;;;2.05;1.00;;;17.10;66.00;;;;;;5071072;28;20059;-76
2022/10/16 03:50:24;;;;;;;1.00;0.90;;;17.10;66.00;;;;;;5071111;28;20139;-76
2022/10/16 03:52:51;;;;;;;1.40;1.08;;;17.10;66.00;;;;;;5070622;28;20049;-76
2022/10/16 03:55:17;;;;;;;1.10;1.00;;;17.10;66.00;;;;;;5071118;28;20053;-76
2022/10/16 03:57:44;;;;;;;1.30;1.10;;;17.10;65.90;;;;;;5070783;28;20052;-76
2022/10/16 04:00:12;;;;;;;0.90;0.90;;;17.10;66.00;;;;;;5070930;28;20056;-76
2022/10/16 04:02:40;;;;;;;1.17;1.00;;;17.10;66.00;;;;;;5070720;28;20147;-76
2022/10/16 04:05:07;;;;;;;1.00;0.90;;;17.10;65.90;;;;;;5071092;28;20090;-76
2022/10/16 04:07:34;;;;;;;1.10;1.00;;;17.10;66.00;;;;;;5070873;28;20549;-76
2022/10/16 04:10:01;;;;;;;1.58;1.00;;;17.10;66.00;;;;;;5070598;28;20060;-76
2022/10/16 04:12:28;;;;;;;0.93;0.82;;;17.10;66.00;;;;;;5070793;28;20106;-76
2022/10/16 04:14:54;;;;;;;1.52;1.00;;;17.10;66.00;;;;;;5070702;28;20048;-76
2022/10/16 04:17:21;;;;;;;1.10;1.00;;;17.10;66.00;;;;;;5070765;28;20497;-77
2022/10/16 04:19:49;;;;;;;2.08;1.00;;;16.90;66.20;;;;;;5070541;28;20056;-75
2022/10/16 04:22:16;;;;;;;1.75;1.00;;;17.10;66.00;;;;;;5070445;28;20451;-76
2022/10/16 04:24:43;;;;;;;1.13;1.00;;;17.10;66.00;;;;;;5070714;28;20049;-76
2022/10/16 04:27:09;;;;;;;1.25;0.90;;;17.10;65.90;;;;;;5070834;28;20136;-76
2022/10/16 04:29:36;;;;;;;1.75;1.10;;;17.10;65.90;;;;;;5071689;28;20074;-76
2022/10/16 04:32:03;;;;;;;1.52;1.05;;;17.10;66.00;;;;;;5070557;28;20167;-77
2022/10/16 04:34:29;;;;;;;1.00;0.90;;;17.10;66.00;;;;;;5070322;28;20462;-76
2022/10/16 04:36:57;;;;;;;1.20;1.10;;;17.10;66.00;;;;;;5071802;28;20051;-75
2022/10/16 04:39:24;;;;;;;1.13;0.90;;;17.10;66.00;;;;;;5071429;28;20048;-76
2022/10/16 04:41:51;;;;;;;1.30;1.08;;;17.10;66.00;;;;;;5070435;28;20132;-76
2022/10/16 04:44:18;;;;;;;1.27;1.10;;;17.10;65.90;;;;;;5070576;28;20124;-76
2022/10/16 04:46:45;;;;;;;1.30;0.90;;;17.10;66.00;;;;;;5071535;28;20051;-76
2022/10/16 04:49:11;;;;;;;1.85;1.10;;;17.10;65.90;;;;;;5070561;28;20056;-76
2022/10/16 04:51:38;;;;;;;1.13;0.98;;;17.10;66.00;;;;;;5070279;28;20063;-76
2022/10/16 04:54:06;;;;;;;1.60;1.25;;;17.10;66.00;;;;;;5070115;28;20453;-76
2022/10/16 04:56:39;;;;;;;1.00;0.90;;;17.10;66.00;;;;;;5070405;28;20246;-76
2022/10/16 04:59:06;;;;;;;1.45;1.00;;;17.10;66.50;;;;;;5071210;28;20580;-76
2022/10/16 05:01:33;;;;;;;1.75;1.00;;;17.10;66.00;;;;;;5070184;28;20090;-77
2022/10/16 05:04:00;;;;;;;1.25;1.00;;;17.10;66.00;;;;;;5070310;28;20125;-76
2022/10/16 05:06:26;;;;;;;1.85;1.10;;;17.10;66.00;;;;;;5070362;28;20059;-77
2022/10/16 05:08:53;;;;;;;1.52;1.00;;;17.10;66.00;;;;;;5071717;28;20135;-76
2022/10/16 05:11:21;;;;;;;1.10;0.95;;;17.10;66.00;;;;;;5073813;28;20075;-76
2022/10/16 05:13:48;;;;;;;1.48;0.98;;;17.10;66.00;;;;;;5073873;28;20045;-76
2022/10/16 05:16:14;;;;;;;1.00;0.90;;;17.10;66.00;;;;;;5074081;28;20062;-76
2022/10/16 05:18:41;;;;;;;0.80;0.80;;;17.10;66.00;;;;;;5072993;28;20094;-76
2022/10/16 05:21:08;;;;;;;1.33;1.00;;;17.00;65.90;;;;;;5073072;28;20057;-76
2022/10/16 05:23:34;;;;;;;1.20;1.10;;;17.00;65.90;;;;;;5073658;28;20131;-76
2022/10/16 05:26:01;;;;;;;1.17;0.90;;;17.00;65.90;;;;;;5073743;28;20143;-76
2022/10/16 05:28:30;;;;;;;0.80;0.80;;;17.00;65.90;;;;;;5073491;28;20382;-76
2022/10/16 05:30:57;;;;;;;0.90;0.90;;;17.00;65.90;;;;;;5056753;28;20059;-76
2022/10/16 05:33:24;;;;;;;1.33;1.00;;;17.10;66.00;;;;;;5073653;28;20048;-76
2022/10/16 05:35:51;;;;;;;1.50;0.88;;;17.00;65.90;;;;;;5073390;28;20155;-76
2022/10/16 05:38:17;;;;;;;0.98;0.90;;;17.00;65.90;;;;;;5073596;28;20048;-76
2022/10/16 05:40:44;;;;;;;1.23;0.95;;;17.00;65.90;;;;;;5072855;28;20139;-76
2022/10/16 05:43:11;;;;;;;1.10;1.00;;;17.00;65.90;;;;;;5073459;28;20150;-76
2022/10/16 05:45:39;;;;;;;1.00;0.90;;;17.00;65.90;;;;;;5073595;28;20409;-76
2022/10/16 05:48:06;;;;;;;1.30;1.10;;;17.00;65.90;;;;;;5074497;28;20044;-76
2022/10/16 05:50:33;;;;;;;1.52;1.02;;;17.00;65.90;;;;;;5073197;28;20053;-76
2022/10/16 05:52:59;;;;;;;1.35;0.90;;;17.00;65.90;;;;;;5073157;28;20137;-76
2022/10/16 05:55:26;;;;;;;1.10;1.00;;;17.00;65.90;;;;;;5072968;28;20049;-75
2022/10/16 05:57:55;;;;;;;1.00;0.90;;;17.00;65.90;;;;;;5073405;28;20056;-75
2022/10/16 06:00:22;;;;;;;1.38;0.90;;;17.00;65.90;;;;;;5073324;28;20060;-76
2022/10/16 06:02:50;;;;;;;1.30;0.80;;;17.00;66.00;;;;;;5073195;28;20060;-75
2022/10/16 06:05:17;;;;;;;0.90;0.82;;;17.00;65.90;;;;;;5072569;28;20057;-77
2022/10/16 06:07:44;;;;;;;1.38;1.08;;;17.00;65.90;;;;;;5073232;28;20139;-76
2022/10/16 06:10:10;;;;;;;0.88;0.88;;;17.00;65.90;;;;;;5072649;28;20119;-76
2022/10/16 06:12:37;;;;;;;1.02;0.90;;;17.00;66.00;;;;;;5073077;28;20052;-75
2022/10/16 06:15:04;;;;;;;1.33;1.00;;;17.00;65.90;;;;;;5072753;28;20059;-76
2022/10/16 06:17:31;;;;;;;1.02;0.93;;;17.00;65.90;;;;;;5072867;28;20132;-76
2022/10/16 06:19:59;;;;;;;0.90;0.90;;;17.00;65.90;;;;;;5072375;28;20112;-77
2022/10/16 06:22:26;;;;;;;1.50;0.98;;;17.00;65.90;;;;;;5072550;28;20135;-76
2022/10/16 06:24:52;;;;;;;1.20;1.00;;;17.00;65.90;;;;;;5072454;28;20127;-76
2022/10/16 06:27:19;;;;;;;1.23;0.95;;;17.00;65.90;;;;;;5072407;28;20437;-75
2022/10/16 06:29:46;;;;;;;1.02;0.93;;;17.00;65.90;;;;;;5072419;28;20243;-77
2022/10/16 06:32:12;;;;;;;1.10;1.00;;;17.00;65.90;;;;;;5072248;28;20059;-76
2022/10/16 06:34:40;;;;;;;0.80;0.80;;;17.00;65.90;;;;;;5072101;28;20045;-76
2022/10/16 06:37:08;;;;;;;1.17;0.90;;;17.00;65.90;;;;;;5073809;28;20049;-77
2022/10/16 06:39:35;;;;;;;1.45;1.00;;;17.00;65.90;;;;;;5073054;28;20044;-76
2022/10/16 06:42:02;;;;;;;0.93;0.82;;;17.00;65.90;;;;;;5072220;28;20062;-76
2022/10/16 06:44:28;;;;;;;1.15;0.90;;;17.00;65.90;;;;;;5071950;28;20044;-75
2022/10/16 06:46:55;;;;;;;1.00;0.90;;;17.00;65.90;;;;;;5072827;28;20699;-75
2022/10/16 06:49:22;;;;;;;1.13;0.98;;;17.00;65.90;;;;;;5071867;28;20087;-76
2022/10/16 06:51:49;;;;;;;1.10;1.00;;;17.00;65.90;;;;;;5071622;28;20063;-75
2022/10/16 06:54:18;;;;;;;1.50;1.00;;;17.00;65.90;;;;;;5071458;28;20052;-75
2022/10/16 06:56:45;;;;;;;0.85;0.85;;;17.00;65.90;;;;;;5071395;28;20055;-75
2022/10/16 06:59:12;;;;;;;1.00;0.90;;;17.00;65.90;;;;;;5071705;28;20059;-76
2022/10/16 07:01:38;;;;;;;1.00;0.82;;;17.00;65.90;;;;;;5070802;28;20503;-76
2022/10/16 07:04:05;;;;;;;1.27;0.93;;;17.00;65.90;;;;;;5071255;28;20417;-75
2022/10/16 07:06:33;;;;;;;0.90;0.88;;;17.00;65.90;;;;;;5071386;28;20069;-75
2022/10/16 07:09:03;;;;;;;1.95;0.95;;;17.00;65.90;;;;;;5051270;28;20505;-76
2022/10/16 07:11:31;;;;;;;0.85;0.85;;;17.00;65.90;;;;;;5068720;28;20063;-75
2022/10/16 07:13:57;;;;;;;1.00;0.82;;;17.00;65.90;;;;;;5071066;28;20051;-75
2022/10/16 07:16:25;;;;;;;2.20;1.00;;;17.00;65.90;;;;;;5071292;28;20048;-75
2022/10/16 07:18:57;;;;;;;1.60;1.00;;;17.00;65.90;;;;;;5071190;28;20135;-75
2022/10/16 07:21:25;;;;;;;1.10;0.90;;;17.00;65.90;;;;;;5071069;28;20052;-75
2022/10/16 07:23:52;;;;;;;1.35;1.00;;;17.00;65.90;;;;;;5070738;28;20494;-76
2022/10/16 07:26:19;;;;;;;1.00;0.90;;;17.00;65.90;;;;;;5071331;28;20060;-75
2022/10/16 07:28:47;;;;;;;1.00;0.90;;;17.00;65.90;;;;;;5070941;28;20131;-75
2022/10/16 07:31:14;;;;;;;1.10;1.00;;;17.00;65.90;;;;;;5069988;28;20056;-76
2022/10/16 07:33:43;;;;;;;2.70;0.82;;;17.00;65.80;;;;;;5071006;28;20573;-75
2022/10/16 07:36:09;;;;;;;1.05;0.95;;;17.00;65.80;;;;;;5070747;28;20071;-75
2022/10/16 07:38:36;;;;;;;1.38;1.00;;;17.00;65.80;;;;;;5070766;28;20064;-75
2022/10/16 07:41:03;;;;;;;1.05;0.93;;;17.00;65.80;;;;;;5070489;28;20461;-75
2022/10/16 07:43:30;;;;;;;1.08;0.98;;;17.10;65.90;;;;;;5070999;28;20048;-76
2022/10/16 07:45:58;;;;;;;1.00;0.90;;;17.00;65.80;;;;;;5070843;28;20060;-75
2022/10/16 07:48:27;;;;;;;1.30;0.88;;;17.10;65.80;;;;;;5070952;28;20124;-75
2022/10/16 07:50:57;;;;;;;1.15;1.00;;;17.00;65.80;;;;;;5071010;28;20058;-76
2022/10/16 07:53:24;;;;;;;1.00;0.88;;;17.00;65.80;;;;;;5071244;28;20056;-75
2022/10/16 07:55:50;;;;;;;0.95;0.88;;;17.10;65.80;;;;;;5072688;28;20057;-76
2022/10/16 07:58:17;;;;;;;1.40;1.10;;;17.10;65.80;;;;;;5071126;28;20508;-76
2022/10/16 08:00:44;;;;;;;1.17;1.00;;;17.10;65.80;;;;;;5081340;28;20055;-76
2022/10/16 08:03:12;;;;;;;1.15;1.00;;;17.20;65.70;;;;;;5091315;28;20127;-75
2022/10/16 08:05:38;;;;;;;1.08;0.90;;;17.20;65.70;;;;;;5092691;28;20410;-76
2022/10/16 08:08:05;;;;;;;8.80;2.40;;;17.30;65.70;;;;;;5088448;28;20054;-76
2022/10/16 08:10:32;;;;;;;5.78;1.60;;;17.30;65.80;;;;;;5090414;28;20082;-76
2022/10/16 08:12:59;;;;;;;5.65;1.50;;;17.40;65.90;;;;;;5091325;28;20512;-76
2022/10/16 08:15:26;;;;;;;3.05;1.70;;;17.40;66.00;;;;;;5081908;28;20062;-76
2022/10/16 08:17:57;;;;;;;5.10;1.58;;;17.50;66.00;;;;;;5071011;28;20059;-75
2022/10/16 08:20:26;;;;;;;2.38;1.40;;;17.50;65.90;;;;;;5071295;28;20052;-76
2022/10/16 08:22:53;;;;;;;3.53;1.63;;;17.60;65.90;;;;;;5071072;28;20064;-76
2022/10/16 08:25:19;;;;;;;4.57;1.40;;;17.60;65.80;;;;;;5073701;28;20477;-76
2022/10/16 08:27:46;;;;;;;4.47;1.45;;;17.70;65.70;;;;;;5090790;28;20131;-75
2022/10/16 08:30:14;;;;;;;3.80;1.58;;;17.80;65.60;;;;;;5090659;28;20561;-75
2022/10/16 08:32:41;;;;;;;3.05;1.40;;;17.80;65.50;;;;;;5090950;28;20058;-75
2022/10/16 08:35:09;;;;;;;4.25;1.55;;;17.80;65.40;;;;;;5090564;28;20508;-75
2022/10/16 08:37:37;;;;;;;3.13;1.35;;;17.90;65.40;;;;;;5090441;28;20469;-75
2022/10/16 08:40:04;;;;;;;2.42;1.40;;;18.00;65.40;;;;;;5090172;28;20052;-75
2022/10/16 08:42:37;;;;;;;5.95;1.77;;;18.00;65.30;;;;;;5092027;28;20066;-75
2022/10/16 08:45:14;;;;;;;3.35;1.40;;;18.00;65.20;;;;;;5093276;28;20044;-75
2022/10/16 08:47:46;;;;;;;4.85;1.50;;;18.10;65.20;;;;;;5094722;28;20143;-75
2022/10/16 08:50:14;;;;;;;3.72;1.40;;;18.10;65.10;;;;;;5094463;28;20055;-75
2022/10/16 08:52:44;;;;;;;3.30;1.40;;;18.10;65.00;;;;;;5094379;28;20066;-75
2022/10/16 08:55:16;;;;;;;2.70;1.35;;;18.20;65.00;;;;;;5089356;28;20048;-75
2022/10/16 08:57:42;;;;;;;2.17;1.45;;;18.20;65.00;;;;;;5093822;28;20048;-75
2022/10/16 09:00:14;;;;;;;1.67;1.10;;;18.20;65.00;;;;;;5094029;28;20068;-75
2022/10/16 09:02:44;;;;;;;1.67;1.20;;;18.20;64.80;;;;;;5094260;28;20144;-75
2022/10/16 09:05:34;;;;;;;2.17;1.35;;;18.20;64.80;;;;;;5095262;28;20138;-75
2022/10/16 09:08:07;;;;;;;3.20;1.48;;;18.30;64.90;;;;;;5090784;28;20489;-75
2022/10/16 09:10:39;;;;;;;2.35;1.30;;;18.30;64.80;;;;;;5093049;28;20051;-75
2022/10/16 09:13:13;;;;;;;3.08;1.55;;;18.30;64.80;;;;;;5091733;28;20055;-75
2022/10/16 09:15:41;;;;;;;3.40;1.20;;;18.40;64.80;;;;;;5093775;28;20044;-75
2022/10/16 09:18:10;;;;;;;3.53;1.67;;;18.40;64.70;;;;;;5092418;28;20062;-75
2022/10/16 09:20:43;;;;;;;1.88;1.17;;;18.40;64.60;;;;;;5089924;28;20048;-75
2022/10/16 09:23:18;;;;;;;2.17;1.20;;;18.40;64.50;;;;;;5092260;28;20044;-75
2022/10/16 09:25:49;;;;;;;1.95;1.30;;;18.40;64.30;;;;;;5092386;28;20062;-75
2022/10/16 09:28:16;;;;;;;1.88;1.23;;;18.40;64.40;;;;;;5092319;28;20057;-75
2022/10/16 09:30:43;;;;;;;2.75;1.50;;;18.50;64.40;;;;;;5093119;28;20051;-75
2022/10/16 09:33:10;;;;;;;2.25;1.30;;;18.50;64.30;;;;;;5093775;28;20055;-76
2022/10/16 09:35:38;;;;;;;2.67;1.20;;;18.60;64.20;;;;;;5094617;28;20131;-74
2022/10/16 09:38:05;;;;;;;2.20;1.10;;;18.60;64.20;;;;;;5093684;28;20056;-76
2022/10/16 09:40:35;;;;;;;2.17;1.30;;;18.60;64.10;;;;;;5094417;28;20131;-75
2022/10/16 09:43:04;;;;;;;2.33;1.30;;;18.60;64.20;;;;;;5094892;28;20558;-75
2022/10/16 09:45:31;;;;;;;2.20;1.10;;;18.60;64.20;;;;;;5094373;28;20044;-76
2022/10/16 09:47:58;;;;;;;1.83;1.10;;;18.60;64.10;;;;;;5094639;28;20063;-76
2022/10/16 09:50:26;;;;;;;1.67;1.17;;;18.60;64.20;;;;;;5093953;28;20048;-75
2022/10/16 09:53:04;;;;;;;7.28;1.88;;;18.60;64.20;;;;;;5094653;28;20451;-76
2022/10/16 09:55:32;;;;;;;1.45;1.10;;;18.70;64.20;;;;;;5092656;28;20044;-76
2022/10/16 09:57:59;;;;;;;2.65;1.30;;;18.60;64.10;;;;;;5093080;28;20134;-76
2022/10/16 10:00:27;;;;;;;1.73;1.10;;;18.70;64.10;;;;;;5092926;28;20062;-76
2022/10/16 10:02:54;;;;;;;2.40;1.20;;;18.70;64.10;;;;;;5092720;28;20097;-76
2022/10/16 10:05:22;;;;;;;3.30;1.20;;;18.70;64.00;;;;;;5093029;28;20047;-75
2022/10/16 10:07:55;;;;;;;2.22;1.30;;;18.70;64.10;;;;;;5092721;28;20048;-75
2022/10/16 10:10:23;;;;;;;1.80;1.10;;;18.70;64.00;;;;;;5092936;28;20139;-77
2022/10/16 10:12:51;;;;;;;1.77;1.05;;;18.70;63.90;;;;;;5093348;28;20677;-77
2022/10/16 10:15:21;;;;;;;1.63;1.10;;;18.80;63.90;;;;;;5092305;28;20048;-76
2022/10/16 10:17:48;;;;;;;;;;;18.80;63.90;;;;;;5088807;28;20060;-76
2022/10/16 10:20:23;;;;;;;2.35;0.90;;;18.80;64.20;;;;;;5083412;28;19924;-75
2022/10/16 10:22:49;;;;;;;;;;;18.80;64.10;;;;;;5072956;28;20482;-77
2022/10/16 10:25:39;;;;;;;2.55;1.10;;;18.70;64.30;;;;;;5072966;28;20012;-77
2022/10/16 10:28:42;;;;;;;3.70;1.17;;;18.70;64.30;;;;;;5068693;28;20092;-77
2022/10/16 10:31:11;;;;;;;2.00;1.20;;;18.80;64.50;;;;;;5073334;28;20405;-77
2022/10/16 10:33:42;;;;;;;2.55;1.20;;;18.80;64.50;;;;;;5073343;28;20050;-77
2022/10/16 10:36:22;;;;;;;2.65;1.10;;;18.80;64.60;;;;;;5072256;28;20513;-77
2022/10/16 10:38:51;;;;;;;3.17;1.40;;;18.80;64.70;;;;;;5072383;28;20060;-77
2022/10/16 10:42:09;;;;;;;1.92;1.20;;;18.80;64.80;;;;;;5072043;28;20139;-76
2022/10/16 10:44:52;;;;;;;4.00;1.40;;;18.80;64.80;;;;;;5098888;28;20052;-76
2022/10/16 10:47:25;;;;;;;4.72;1.20;;;18.80;64.90;;;;;;5092262;28;20139;-75
2022/10/16 10:49:58;;;;;;;5.22;1.30;;;18.80;64.90;;;;;;5091168;28;20147;-75
2022/10/16 10:52:36;;;;;;;2.72;1.10;;;18.80;64.80;;;;;;5090208;28;20048;-75
2022/10/16 10:55:09;;;;;;;4.28;1.10;;;18.80;64.70;;;;;;5091067;28;20058;-75
2022/10/16 10:57:38;;;;;;;2.22;1.20;;;18.80;64.70;;;;;;5091523;28;20052;-73
2022/10/16 11:00:17;;;;;;;3.13;1.25;;;18.80;64.60;;;;;;5074458;28;20052;-74
2022/10/16 11:02:47;;;;;;;2.05;1.10;;;18.80;64.60;;;;;;5090358;28;20052;-73
2022/10/16 11:05:30;;;;;;;3.88;1.42;;;18.80;64.60;;;;;;5091494;28;20050;-73
2022/10/16 11:07:59;;;;;;;1.85;1.05;;;18.80;64.60;;;;;;5090956;28;20055;-75
2022/10/16 11:10:28;;;;;;;2.72;1.20;;;18.80;64.60;;;;;;5091310;28;20052;-76
2022/10/16 11:12:57;;;;;;;3.45;1.08;;;18.80;64.60;;;;;;5091794;28;20488;-74
2022/10/16 11:15:28;;;;;;;2.15;1.27;;;18.80;64.60;;;;;;5091806;28;20419;-74
2022/10/16 11:17:56;;;;;;;2.85;1.30;;;18.80;64.70;;;;;;5092021;28;20142;-75
2022/10/16 11:20:24;;;;;;;5.45;1.52;;;18.80;64.70;;;;;;5091336;28;20058;-75
2022/10/16 11:22:52;;;;;;;3.22;1.10;;;18.80;64.70;;;;;;5091508;28;20058;-75
2022/10/16 11:25:20;;;;;;;2.97;1.20;;;18.80;64.70;;;;;;5092849;28;20479;-75
2022/10/16 11:27:50;;;;;;;3.72;1.27;;;18.80;64.70;;;;;;5091680;28;20052;-73
2022/10/16 11:30:19;;;;;;;3.75;1.10;;;18.80;64.70;;;;;;5091324;28;20139;-74
2022/10/16 11:32:57;;;;;;;2.95;1.30;;;18.70;64.60;;;;;;5091134;28;20056;-74
2022/10/16 11:35:25;;;;;;;2.78;1.27;;;18.70;64.50;;;;;;5091216;28;20055;-75
2022/10/16 11:37:52;;;;;;;5.45;1.30;;;18.70;64.50;;;;;;5091483;28;20062;-74
2022/10/16 11:40:22;;;;;;;2.67;0.95;;;18.70;64.50;;;;;;5090833;28;20130;-76
2022/10/16 11:42:51;;;;;;;3.33;1.13;;;18.70;64.40;;;;;;5091470;28;20070;-74
2022/10/16 11:45:25;;;;;;;3.33;1.23;;;19.90;65.10;;;;;;5091077;28;20052;-76
2022/10/16 11:47:58;;;;;;;2.38;1.10;;;18.70;64.40;;;;;;5091366;28;20056;-76
2022/10/16 11:50:27;;;;;;;4.00;1.35;;;18.70;64.40;;;;;;5090836;28;20483;-76
2022/10/16 11:52:56;;;;;;;6.30;1.70;;;18.70;64.50;;;;;;5091277;28;20056;-76
2022/10/16 11:55:24;;;;;;;3.00;1.23;;;18.70;64.50;;;;;;5090926;28;20511;-76
2022/10/16 11:57:52;;;;;;;3.75;1.20;;;18.70;64.40;;;;;;5092192;28;20237;-76
2022/10/16 12:00:22;;;;;;;4.75;1.23;;;18.70;64.40;;;;;;5090709;28;20553;-75
2022/10/16 12:02:58;;;;;;;3.92;1.33;;;18.70;64.40;;;;;;5090616;28;20078;-76
2022/10/16 12:05:31;;;;;;;3.22;1.13;;;18.70;64.40;;;;;;5090970;28;20538;-76
2022/10/16 12:08:03;;;;;;;4.03;1.20;;;18.70;64.40;;;;;;5091010;28;20060;-76
2022/10/16 12:10:31;;;;;;;2.58;1.13;;;18.70;64.40;;;;;;5091029;28;20142;-76
2022/10/16 12:12:58;;;;;;;3.60;1.20;;;18.70;64.40;;;;;;5091235;28;20382;-76
2022/10/16 12:15:26;;;;;;;3.40;1.35;;;18.70;64.40;;;;;;5091227;28;20063;-77
2022/10/16 12:17:53;;;;;;;2.17;1.30;;;18.70;64.30;;;;;;5093961;28;20457;-76
2022/10/16 12:20:27;;;;;;;3.85;1.30;;;18.70;64.30;;;;;;5097735;28;20079;-76
2022/10/16 12:22:55;;;;;;;2.33;1.17;;;18.70;64.30;;;;;;5097930;28;20102;-76
2022/10/16 12:25:23;;;;;;;4.18;1.33;;;18.70;64.30;;;;;;5097564;28;20454;-76
2022/10/16 12:27:55;;;;;;;1.95;1.02;;;18.70;64.30;;;;;;5097553;28;20536;-76
2022/10/16 12:30:23;;;;;;;2.35;1.05;;;18.70;64.20;;;;;;5097076;28;20401;-76
2022/10/16 12:32:54;;;;;;;2.03;1.10;;;18.70;64.20;;;;;;5097554;28;20135;-76
2022/10/16 12:35:23;;;;;;;2.25;1.20;;;18.70;64.20;;;;;;5096982;28;20139;-76
2022/10/16 12:37:50;;;;;;;2.95;1.20;;;18.70;64.20;;;;;;5096919;28;20131;-76
2022/10/16 12:40:27;;;;;;;3.05;1.25;;;18.60;64.20;;;;;;5097090;28;20409;-76
2022/10/16 12:42:53;;;;;;;1.52;1.20;;;18.70;64.20;;;;;;5097598;28;20070;-76
2022/10/16 12:45:31;;;;;;;3.80;1.10;;;18.60;64.20;;;;;;5097081;28;20150;-76
2022/10/16 12:47:58;;;;;;;1.95;1.05;;;18.70;64.70;;;;;;5097475;28;20500;-76
2022/10/16 12:50:28;;;;;;;3.42;1.42;;;17.90;63.80;;;;;;5097195;28;20134;-76
2022/10/16 12:52:54;;;;;;;2.17;1.13;;;18.60;64.10;;;;;;5097705;28;20134;-76
2022/10/16 12:55:22;;;;;;;5.35;1.48;;;18.70;64.20;;;;;;5097259;28;20155;-76